San Roque, Argentina
Current Conditions -  °F | °C
As of 6:00 PM on Saturday 22 Nov 2014 (Local Time) from SAME Reporting Station
Clear Clear  
Wind Chill: 84°   Ceiling: Unl
Heat Index: 84°   Visibility: 6mi
Dew Point: 37°   Wind: 14mph
Humidity: 19%   Direction: 50°NE
Pressure: 29.8"   Gusts: NA
Location:  33.05°S, 68.58°W
Report Text: SAME 222100Z 05012KT CAVOK 29/03 Q1009
Loading
Personal Weather Stations






























Interactive Weather Map New forecast layout! Learn more

10-Day Weather Forecast

Advertisements
Track Severe Weather on mobile